Explorer Of The Seas — C6SE4 — position and weather

sailwx.info

Track history (hours):
 
Tides and Currents Weather Stations Pressure Air Temp Water Temp Dewpoint Dewpoint Depression Visibility Wind Speed Wind Dir Waves Ship Positions

Explorer Of The Seas

Operator: Royal Caribbean Cruises Ltd

Last reported at 2019-Jul-22 09:48 UTC. Time now 2019-Jul-22 14:36 UTC.
Position N 47°43' W 006°46'.

Length 311 m; draft 9.1 m.

Type: Passenger vessel. MMSI: 311316000.

Date/timePositionNaut miles runAvg speedWind from/ knotsBaromVisibWave heightAir tempDewpointWater temp
2019-Jul-22 09:48N 47°43' W 006°46'2120.7
2019-Jul-22 08:48N 48°02' W 006°32'3220.0
2019-Jul-22 07:13N 48°29' W 006°08'819.4
2019-Jul-22 06:48N 48°37' W 006°04'619.6
2019-Jul-22 06:30N 48°42' W 006°00'1119.4
2019-Jul-22 05:56N 48°52' W 005°52'819.4
2019-Jul-22 05:30N 48°58' W 005°43'1019.7
2019-Jul-22 05:00N 49°03' W 005°30'1019.9
2019-Jul-22 04:31N 49°08' W 005°17'1119.9
2019-Jul-22 03:59N 49°13' W 005°03'1419.4
2019-Jul-22 03:16N 49°21' W 004°46'619.5
2019-Jul-22 02:56N 49°24' W 004°37'3519.5
2019-Jul-22 01:10N 49°42' W 003°51'619.0
2019-Jul-22 00:50N 49°45' W 003°43'718.6
2019-Jul-22 00:29N 49°48' W 003°34'818.1
2019-Jul-22 00:01N 49°53' W 003°23'917.9
2019-Jul-21 23:31N 49°57' W 003°11'918.0
2019-Jul-21 23:01N 49°60' W 002°58'917.7
2019-Jul-21 22:31N 50°03' W 002°45'917.5
2019-Jul-21 21:59N 50°05' W 002°31'1017.4
2019-Jul-21 21:25N 50°09' W 002°16'717.6
2019-Jul-21 21:00N 50°11' W 002°06'918.0
2019-Jul-21 20:30N 50°16' W 001°54'918.5
2019-Jul-21 20:00N 50°20' W 001°41'918.9
2019-Jul-21 19:30N 50°25' W 001°28'1019.6
2019-Jul-21 19:00N 50°29' W 001°14'1020.0
2019-Jul-21 18:30N 50°34' W 001°01'816.6
2019-Jul-21 18:01N 50°42' W 000°58'815.7
2019-Jul-21 17:30N 50°46' W 001°09'612.0
2019-Jul-21 17:00N 50°48' W 001°18'5 9.2
2019-Jul-21 16:30N 50°52' W 001°22'3 5.8
2019-Jul-21 16:00N 50°54' W 001°25'0 0.0
2019-Jul-21 15:29N 50°54' W 001°25'0 0.0
2019-Jul-21 14:59N 50°54' W 001°25'0 0.0
2019-Jul-21 14:20N 50°54' W 001°25'0 0.0
2019-Jul-21 13:56N 50°54' W 001°25'0 0.0
2019-Jul-21 13:29N 50°54' W 001°25'0 0.0
2019-Jul-21 12:59N 50°54' W 001°25'0 0.0
2019-Jul-21 12:29N 50°54' W 001°25'0 0.0
2019-Jul-21 11:59N 50°54' W 001°25'0 0.0
2019-Jul-21 11:29N 50°54' W 001°25'0 0.0
2019-Jul-21 10:59N 50°54' W 001°25'0 0.0
2019-Jul-21 10:29N 50°54' W 001°25'0 0.0
2019-Jul-21 09:59N 50°54' W 001°25'0 0.0
2019-Jul-21 09:26N 50°54' W 001°25'0 0.0
2019-Jul-21 08:59N 50°54' W 001°25'0 0.0
2019-Jul-21 08:29N 50°54' W 001°25'0 0.0
2019-Jul-21 08:01N 50°54' W 001°25'1 1.3
2019-Jul-21 07:30N 50°53' W 001°24'5 9.1
2019-Jul-21 07:00N 50°50' W 001°19'4 8.3
2019-Jul-21 06:31N 50°46' W 001°17'918.7
2019-Jul-21 06:00N 50°44' W 001°03'714.1
2019-Jul-21 05:31N 50°39' W 000°55'1121.8
2019-Jul-21 05:00N 50°36' W 000°38'1122.9
2019-Jul-21 04:31N 50°34' W 000°20'1122.8
2019-Jul-21 04:00N 50°33' W 000°02'4320.9
2019-Jul-21 01:58N 50°50' E 000°59'2219.6
2019-Jul-21 00:50N 51°04' E 001°27'720.4
2019-Jul-21 00:30N 51°08' E 001°35'1121.1
2019-Jul-21 00:00N 51°15' E 001°47'3238.7
2019-Jul-21 00:00N 51°12' E 001°48'1428.5 270 / 251014.610.8 16.016.017.0
2019-Jul-20 23:31N 51°25' E 001°55'1223.3
2019-Jul-20 23:00N 51°35' E 002°05'1223.3
2019-Jul-20 22:30N 51°43' E 002°18'2013.2
2019-Jul-20 21:00N 52°00' E 002°36'16166.6 270 / 201012.327.0 15.0 15.0
2019-Jul-20 20:54N 52°16' E 002°38'1022.0
2019-Jul-20 20:26N 52°26' E 002°38'921.7
2019-Jul-20 20:00N 52°35' E 002°38'2521.2
2019-Jul-20 18:48N 53°01' E 002°38'620.4
2019-Jul-20 18:30N 53°07' E 002°39'510.1
2019-Jul-20 18:00N 53°12' E 002°42'25421.4 260 / 351007.010.8 15.0 16.0
2019-Jul-20 06:07N 57°18' E 004°36'321.0
2019-Jul-20 06:00N 57°20' E 004°37'1121.1
2019-Jul-20 05:29N 57°30' E 004°42'1021.3
2019-Jul-20 05:00N 57°40' E 004°48'1121.6
2019-Jul-20 04:30N 57°51' E 004°53'1121.7
2019-Jul-20 04:00N 58°01' E 004°58'1122.1
2019-Jul-20 03:29N 58°12' E 005°03'1121.7
2019-Jul-20 03:00N 58°23' E 005°07'1121.9
2019-Jul-20 02:30N 58°33' E 005°09'1121.9
2019-Jul-20 02:00N 58°44' E 005°15'918.9
2019-Jul-20 01:31N 58°51' E 005°27'714.2
2019-Jul-20 01:00N 58°58' E 005°33'510.1
2019-Jul-20 00:31N 59°02' E 005°38'4 8.5
2019-Jul-19 23:59N 58°58' E 005°44'0 0.0
2019-Jul-19 23:29N 58°58' E 005°44'0 0.0
2019-Jul-19 22:59N 58°58' E 005°44'0 0.0
2019-Jul-19 22:29N 58°58' E 005°44'0 0.0
2019-Jul-19 21:59N 58°58' E 005°44'0 0.0
2019-Jul-19 21:29N 58°58' E 005°44'0 0.0
2019-Jul-19 20:59N 58°58' E 005°44'0 0.0
2019-Jul-19 20:29N 58°58' E 005°44'0 0.0
2019-Jul-19 19:59N 58°58' E 005°44'0 0.0
2019-Jul-19 19:29N 58°58' E 005°44'0 0.0
2019-Jul-19 18:59N 58°58' E 005°44'0 0.0
2019-Jul-19 18:29N 58°58' E 005°44'0 0.0
2019-Jul-19 17:59N 58°58' E 005°44'0 0.0
2019-Jul-19 17:29N 58°58' E 005°44'0 0.0
2019-Jul-19 16:59N 58°58' E 005°44'0 0.0
2019-Jul-19 16:29N 58°58' E 005°44'0 0.0
2019-Jul-19 15:59N 58°58' E 005°44'0 0.0
2019-Jul-19 15:29N 58°58' E 005°44'0 0.0
2019-Jul-19 14:59N 58°58' E 005°44'0 0.0
2019-Jul-19 14:29N 58°58' E 005°44'0 0.0
2019-Jul-19 13:59N 58°58' E 005°44'0 0.0
2019-Jul-19 13:29N 58°58' E 005°44'0 0.0
2019-Jul-19 12:59N 58°58' E 005°44'0 0.0
2019-Jul-19 12:29N 58°58' E 005°44'0 0.0
2019-Jul-19 11:59N 58°58' E 005°44'0 0.0
2019-Jul-19 11:29N 58°58' E 005°44'0 0.0
2019-Jul-19 10:59N 58°58' E 005°44'0 0.0
2019-Jul-19 10:29N 58°58' E 005°44'0 0.0
2019-Jul-19 09:59N 58°58' E 005°44'0 0.0
2019-Jul-19 09:29N 58°58' E 005°44'0 0.0
2019-Jul-19 08:59N 58°58' E 005°44'0 0.0
2019-Jul-19 08:29N 58°58' E 005°44'0 0.0
2019-Jul-19 07:59N 58°58' E 005°44'0 0.0
2019-Jul-19 07:29N 58°58' E 005°44'0 0.0
2019-Jul-19 06:59N 58°58' E 005°44'0 0.0
2019-Jul-19 06:29N 58°58' E 005°44'1 1.3
2019-Jul-19 06:00N 58°59' E 005°43'612.0
2019-Jul-19 05:31N 59°03' E 005°34'816.5
2019-Jul-19 05:00N 58°55' E 005°33'612.2
2019-Jul-19 04:30N 58°50' E 005°27'917.6
2019-Jul-19 04:00N 58°42' E 005°18'1121.3
2019-Jul-19 03:30N 58°31' E 005°18'1120.5
2019-Jul-19 02:59N 58°22' E 005°26'1021.0
2019-Jul-19 02:30N 58°14' E 005°39'1020.7
2019-Jul-19 02:00N 58°07' E 005°54'1020.1
2019-Jul-19 01:30N 58°00' E 006°08'1019.0
2019-Jul-19 01:00N 57°55' E 006°22'918.6
2019-Jul-19 00:30N 57°49' E 006°36'918.6
2019-Jul-19 00:00N 57°47' E 006°53'1019.3
2019-Jul-18 23:29N 57°47' E 007°11'919.3
2019-Jul-18 23:00N 57°47' E 007°29'1019.6
2019-Jul-18 22:30N 57°46' E 007°47'1019.5
2019-Jul-18 22:00N 57°47' E 008°05'1019.2
2019-Jul-18 21:30N 57°48' E 008°23'918.9
2019-Jul-18 21:00N 57°49' E 008°41'918.4
2019-Jul-18 20:30N 57°50' E 008°58'918.1
2019-Jul-18 20:00N 57°51' E 009°15'918.3
2019-Jul-18 19:30N 57°52' E 009°32'918.6
2019-Jul-18 19:00N 57°54' E 009°49'917.1
2019-Jul-18 18:30N 57°53' E 010°05'918.2
2019-Jul-18 18:00N 57°52' E 010°22'918.1
2019-Jul-18 17:30N 57°51' E 010°39'714.9
2019-Jul-18 17:00N 57°44' E 010°45'510.0
2019-Jul-18 16:30N 57°43' E 010°36'1 1.2
2019-Jul-18 15:57N 57°43' E 010°35'0 0.0
2019-Jul-18 15:30N 57°43' E 010°35'0 0.0
2019-Jul-18 14:57N 57°43' E 010°35'0 0.0
2019-Jul-18 14:30N 57°43' E 010°35'0 0.0
2019-Jul-18 13:48N 57°43' E 010°35'0 0.0
2019-Jul-18 13:30N 57°43' E 010°35'0 0.0
2019-Jul-18 13:00N 57°43' E 010°35'0 0.0
2019-Jul-18 12:30N 57°43' E 010°35'0 0.0
2019-Jul-18 12:00N 57°43' E 010°35'0 0.0
2019-Jul-18 11:30N 57°43' E 010°35'0 0.0
2019-Jul-18 11:00N 57°43' E 010°35'0 0.0
2019-Jul-18 10:27N 57°43' E 010°35'0 0.0
2019-Jul-18 09:51N 57°43' E 010°35'0 0.0
2019-Jul-18 09:30N 57°43' E 010°35'0 0.0
2019-Jul-18 08:57N 57°43' E 010°35'0 0.0
2019-Jul-18 08:27N 57°43' E 010°35'0 0.0
2019-Jul-18 07:57N 57°43' E 010°35'0 0.0
2019-Jul-18 07:30N 57°43' E 010°35'2 3.3
2019-Jul-18 07:00N 57°43' E 010°38'1020.5
2019-Jul-18 06:30N 57°41' E 010°57'1121.3
2019-Jul-18 06:00N 57°34' E 011°13'1121.7
2019-Jul-18 05:30N 57°27' E 011°28'1121.9
2019-Jul-18 05:00N 57°17' E 011°34'1121.7
2019-Jul-18 04:30N 57°07' E 011°41'1121.5
2019-Jul-18 04:00N 56°56' E 011°47'1121.8
2019-Jul-18 03:30N 56°46' E 011°54'1121.0
2019-Jul-18 03:00N 56°37' E 011°45'1122.0
2019-Jul-18 02:30N 56°27' E 011°35'5819.5
2019-Jul-17 23:33N 55°36' E 010°49'417.8
2019-Jul-17 23:19N 55°32' E 010°52'619.1
2019-Jul-17 22:59N 55°27' E 010°57'817.6
2019-Jul-17 22:30N 55°19' E 011°03'917.5
2019-Jul-17 22:00N 55°10' E 011°01'1020.5
2019-Jul-17 21:30N 54°60' E 010°59'1121.1
2019-Jul-17 21:01N 54°50' E 010°50'4226.6
2019-Jul-17 21:00N 54°54' E 010°48'1428.8 270 / 61013.127.0 14.5 17.5
2019-Jul-17 20:31N 54°40' E 010°48'1121.2
2019-Jul-17 20:01N 54°36' E 011°05'1020.3
2019-Jul-17 19:31N 54°33' E 011°22'1121.5
2019-Jul-17 19:01N 54°28' E 011°38'1121.0
2019-Jul-17 18:30N 54°26' E 011°56'1019.3
2019-Jul-17 18:00N 54°29' E 012°12'8557.2
2019-Jul-17 18:00N 54°24' E 012°00'1837.2 280 / 121013.827.0 15.4 14.0
2019-Jul-17 17:30N 54°38' E 012°21'6521.1
2019-Jul-17 14:27N 55°04' E 014°03'1021.6
2019-Jul-17 14:00N 55°11' E 014°14'1721.8
2019-Jul-17 13:13N 55°25' E 014°31'522.1
2019-Jul-17 13:00N 55°29' E 014°38'1121.9
2019-Jul-17 12:30N 55°33' E 014°55'1121.8
2019-Jul-17 12:00N 55°37' E 015°13'1121.6
2019-Jul-17 11:30N 55°42' E 015°30'1121.9
2019-Jul-17 11:00N 55°48' E 015°46'1121.9
2019-Jul-17 10:31N 55°54' E 016°03'1122.0
2019-Jul-17 10:00N 55°59' E 016°20'1122.2
2019-Jul-17 09:30N 56°05' E 016°37'1121.5
2019-Jul-17 09:00N 56°14' E 016°48'18921.0
2019-Jul-17 00:00N 59°00' E 019°36'4712.4 350 / 101009.110.8 12.012.016.0
2019-Jul-16 20:15N 59°47' E 019°34'418.7
2019-Jul-16 20:00N 59°47' E 019°26'815.4
2019-Jul-16 19:30N 59°44' E 019°11'816.5
2019-Jul-16 18:59N 59°40' E 018°56'510.6
2019-Jul-16 18:29N 59°37' E 018°48'612.2
2019-Jul-16 18:00N 59°34' E 018°38'6 9.5
2019-Jul-16 17:21N 59°30' E 018°28'411.6
2019-Jul-16 17:00N 59°27' E 018°24'5 9.2
2019-Jul-16 16:30N 59°22' E 018°27'4 7.7
2019-Jul-16 16:00N 59°23' E 018°19'611.3
2019-Jul-16 15:30N 59°19' E 018°10'2 3.9
2019-Jul-16 14:59N 59°19' E 018°06'0 0.0
2019-Jul-16 14:29N 59°19' E 018°06'0 0.0
2019-Jul-16 13:59N 59°19' E 018°06'0 0.0
2019-Jul-16 13:29N 59°19' E 018°06'0 0.0
2019-Jul-16 12:59N 59°19' E 018°06'0 0.0
2019-Jul-16 12:29N 59°19' E 018°06'0 0.0
2019-Jul-16 11:59N 59°19' E 018°06'0 0.0
2019-Jul-16 11:29N 59°19' E 018°06'0 0.0
2019-Jul-16 10:59N 59°19' E 018°06'0 0.0
2019-Jul-16 10:29N 59°19' E 018°06'0 0.0
2019-Jul-16 09:53N 59°19' E 018°06'0 0.0
2019-Jul-16 09:29N 59°19' E 018°06'0 0.0
2019-Jul-16 08:59N 59°19' E 018°06'0 0.0
2019-Jul-16 08:29N 59°19' E 018°06'0 0.0
2019-Jul-16 07:59N 59°19' E 018°06'0 0.0
2019-Jul-16 07:29N 59°19' E 018°06'0 0.0
2019-Jul-16 06:59N 59°19' E 018°06'0 0.0
2019-Jul-16 06:29N 59°19' E 018°06'0 0.0
2019-Jul-16 05:59N 59°19' E 018°06'0 0.0
2019-Jul-16 05:31N 59°19' E 018°06'1 2.9
2019-Jul-16 05:00N 59°19' E 018°09'611.1
2019-Jul-16 04:30N 59°23' E 018°18'5 9.6
2019-Jul-16 04:01N 59°22' E 018°27'5 9.8
2019-Jul-16 03:30N 59°26' E 018°24'610.9
2019-Jul-16 02:59N 59°31' E 018°31'5 9.7
2019-Jul-16 02:30N 59°34' E 018°38'612.0
2019-Jul-16 02:00N 59°37' E 018°48'811.7
2019-Jul-16 01:17N 59°42' E 019°02'617.6
2019-Jul-16 00:58N 59°44' E 019°12'815.8
2019-Jul-16 00:27N 59°47' E 019°27'916.9
2019-Jul-15 23:55N 59°48' E 019°45'4917.6
2019-Jul-15 21:08N 59°28' E 021°14'218.9
2019-Jul-15 21:00N 59°27' E 021°18'916.2
2019-Jul-15 20:27N 59°25' E 021°35'511.2
2019-Jul-15 20:00N 59°26' E 021°45'3111.4
2019-Jul-15 17:19N 59°32' E 022°44'618.1
2019-Jul-15 17:00N 59°34' E 022°55'918.3
2019-Jul-15 16:30N 59°36' E 023°12'918.3
2019-Jul-15 16:00N 59°39' E 023°30'1118.2
2019-Jul-15 15:23N 59°41' E 023°51'718.2
2019-Jul-15 15:00N 59°43' E 024°05'918.2
2019-Jul-15 14:30N 59°47' E 024°21'918.1
2019-Jul-15 14:00N 59°49' E 024°38'917.9
2019-Jul-15 13:30N 59°54' E 024°53'714.8
2019-Jul-15 13:00N 60°02' E 024°55'612.8
2019-Jul-15 12:31N 60°08' E 024°54'1 1.7
2019-Jul-15 12:00N 60°09' E 024°55'0 0.0
2019-Jul-15 11:30N 60°09' E 024°55'0 0.0
2019-Jul-15 11:00N 60°09' E 024°55'0 0.1
2019-Jul-15 10:30N 60°09' E 024°55'0 0.1
2019-Jul-15 10:00N 60°09' E 024°55'0 0.0
2019-Jul-15 09:30N 60°09' E 024°55'0 0.0
2019-Jul-15 09:00N 60°09' E 024°55'0 0.0
2019-Jul-15 08:30N 60°09' E 024°55'0 0.0
2019-Jul-15 08:00N 60°09' E 024°55'0 0.0
2019-Jul-15 07:30N 60°09' E 024°55'0 0.0
2019-Jul-15 07:00N 60°09' E 024°55'0 0.0
2019-Jul-15 06:30N 60°09' E 024°55'0 0.0
2019-Jul-15 06:00N 60°09' E 024°55'0 0.0
2019-Jul-15 05:30N 60°09' E 024°55'0 0.1
2019-Jul-15 05:00N 60°09' E 024°55'0 0.1
2019-Jul-15 04:30N 60°09' E 024°55'0 0.0
2019-Jul-15 04:00N 60°09' E 024°55'0 0.5
2019-Jul-15 03:30N 60°09' E 024°55'611.3
2019-Jul-15 03:01N 60°03' E 024°54'713.9
2019-Jul-15 02:30N 59°58' E 025°03'815.5
2019-Jul-15 02:00N 59°56' E 025°18'815.2
2019-Jul-15 01:30N 59°55' E 025°33'2015.8
2019-Jul-15 00:15N 59°59' E 026°12'416.8
2019-Jul-15 00:01N 59°60' E 026°20'6347.9
2019-Jul-15 00:00N 59°54' E 026°18'1224.2 250 / 101010.710.8 14.014.016.0
2019-Jul-14 23:30N 60°01' E 026°36'816.8
2019-Jul-14 23:00N 59°60' E 026°53'816.4
2019-Jul-14 22:30N 60°02' E 027°09'917.2
2019-Jul-14 22:00N 60°06' E 027°24'917.1
2019-Jul-14 21:31N 60°11' E 027°38'816.2
2019-Jul-14 21:00N 60°11' E 027°55'6375.6
2019-Jul-14 21:00N 60°06' E 027°48'1224.9 300 / 121010.827.0 14.0 15.6
2019-Jul-14 20:30N 60°09' E 028°11'816.7
2019-Jul-14 20:01N 60°04' E 028°26'816.9
2019-Jul-14 19:30N 60°03' E 028°42'917.1
2019-Jul-14 18:59N 60°02' E 029°00'2313.6
2019-Jul-14 17:18N 59°59' E 029°45'3 8.9
2019-Jul-14 17:00N 59°57' E 029°50'510.8
2019-Jul-14 16:30N 59°55' E 029°60'5 9.6
2019-Jul-14 16:00N 59°57' E 030°09'1 2.3
2019-Jul-14 15:28N 59°57' E 030°11'0 0.0
2019-Jul-14 14:58N 59°57' E 030°11'0 0.0
2019-Jul-14 14:28N 59°57' E 030°11'0 0.0
2019-Jul-14 13:58N 59°57' E 030°11'0 0.0
2019-Jul-14 13:28N 59°57' E 030°11'0 0.0
2019-Jul-14 12:58N 59°57' E 030°11'0 0.0
2019-Jul-14 12:25N 59°57' E 030°11'0 0.0
2019-Jul-14 11:58N 59°57' E 030°11'0 0.0
2019-Jul-14 11:28N 59°57' E 030°11'0 0.0
2019-Jul-14 10:58N 59°57' E 030°11'0 0.0
2019-Jul-14 10:28N 59°57' E 030°11'0 0.0
2019-Jul-14 09:58N 59°57' E 030°11'0 0.0
2019-Jul-14 09:28N 59°57' E 030°11'0 0.0
2019-Jul-14 08:58N 59°57' E 030°11'0 0.0
2019-Jul-14 08:28N 59°57' E 030°11'0 0.0
2019-Jul-14 07:58N 59°57' E 030°11'0 0.0
2019-Jul-14 07:28N 59°57' E 030°11'0 0.0
2019-Jul-14 06:58N 59°57' E 030°11'0 0.0
2019-Jul-14 06:28N 59°57' E 030°11'0 0.0
2019-Jul-14 05:58N 59°57' E 030°11'0 0.0
2019-Jul-14 05:28N 59°57' E 030°11'0 0.0
2019-Jul-14 04:58N 59°57' E 030°11'0 0.0
2019-Jul-14 04:28N 59°57' E 030°11'0 0.0
2019-Jul-14 03:55N 59°57' E 030°11'0 0.0
2019-Jul-14 03:28N 59°57' E 030°11'0 0.0
2019-Jul-14 02:55N 59°57' E 030°11'0 0.0
2019-Jul-14 02:28N 59°57' E 030°11'0 0.0
2019-Jul-14 01:58N 59°57' E 030°11'0 0.0
2019-Jul-14 01:28N 59°57' E 030°11'0 0.0
2019-Jul-14 00:58N 59°57' E 030°11'0 0.0
2019-Jul-14 00:28N 59°57' E 030°11'0 0.0
2019-Jul-13 23:58N 59°57' E 030°11'0 0.0
2019-Jul-13 23:28N 59°57' E 030°11'0 0.0
2019-Jul-13 22:58N 59°57' E 030°11'0 0.0
2019-Jul-13 22:28N 59°57' E 030°11'0 0.0
2019-Jul-13 21:58N 59°57' E 030°11'0 0.0
2019-Jul-13 21:25N 59°57' E 030°11'0 0.0
2019-Jul-13 20:58N 59°57' E 030°11'0 0.0
2019-Jul-13 20:28N 59°57' E 030°11'0 0.0
2019-Jul-13 19:58N 59°57' E 030°11'0 0.0
2019-Jul-13 19:28N 59°57' E 030°11'0 0.0
2019-Jul-13 18:55N 59°57' E 030°11'0 0.0
2019-Jul-13 18:28N 59°57' E 030°11'0 0.0
2019-Jul-13 17:58N 59°57' E 030°11'0 0.0
2019-Jul-13 17:28N 59°57' E 030°11'0 0.0
2019-Jul-13 16:58N 59°57' E 030°11'0 0.0
2019-Jul-13 16:28N 59°57' E 030°11'0 0.0
2019-Jul-13 15:58N 59°57' E 030°11'0 0.0
2019-Jul-13 15:28N 59°57' E 030°11'0 0.0
2019-Jul-13 14:58N 59°57' E 030°11'0 0.0
2019-Jul-13 14:28N 59°57' E 030°11'0 0.0
2019-Jul-13 13:58N 59°57' E 030°11'0 0.0
2019-Jul-13 13:28N 59°57' E 030°11'0 0.0
2019-Jul-13 12:58N 59°57' E 030°11'0 0.0
2019-Jul-13 12:28N 59°57' E 030°11'0 0.0
2019-Jul-13 11:58N 59°57' E 030°11'0 0.0
2019-Jul-13 11:28N 59°57' E 030°11'0 0.0
2019-Jul-13 10:49N 59°57' E 030°11'0 0.0
2019-Jul-13 10:28N 59°57' E 030°11'0 0.0
2019-Jul-13 09:58N 59°57' E 030°11'0 0.0
2019-Jul-13 09:28N 59°57' E 030°11'0 0.0
2019-Jul-13 08:58N 59°57' E 030°11'0 0.0
2019-Jul-13 08:28N 59°57' E 030°11'0 0.0
2019-Jul-13 07:58N 59°57' E 030°11'0 0.0
2019-Jul-13 07:28N 59°57' E 030°11'0 0.0
2019-Jul-13 06:58N 59°57' E 030°11'0 0.0
2019-Jul-13 06:28N 59°57' E 030°11'0 0.0
2019-Jul-13 05:58N 59°57' E 030°11'0 0.0
2019-Jul-13 05:28N 59°57' E 030°11'0 0.0
2019-Jul-13 04:58N 59°57' E 030°11'0 0.0
2019-Jul-13 04:28N 59°57' E 030°11'0 0.0
2019-Jul-13 03:55N 59°57' E 030°11'0 0.2
2019-Jul-13 03:30N 59°57' E 030°11'3 5.6
2019-Jul-13 02:59N 59°56' E 030°05'5 9.5
2019-Jul-13 02:30N 59°56' E 029°56'510.2
2019-Jul-13 01:59N 59°58' E 029°47'1211.1
2019-Jul-13 00:56N 60°02' E 029°24'715.6
2019-Jul-13 00:29N 60°02' E 029°10'816.1
2019-Jul-13 00:00N 60°02' E 028°54'817.1
2019-Jul-12 23:30N 60°02' E 028°38'816.8
2019-Jul-12 23:00N 60°05' E 028°22'917.1
2019-Jul-12 22:30N 60°09' E 028°06'917.2
2019-Jul-12 21:59N 60°11' E 027°49'817.1
2019-Jul-12 21:30N 60°07' E 027°34'917.2
2019-Jul-12 21:00N 60°03' E 027°19'817.0
2019-Jul-12 20:30N 59°59' E 027°05'917.4
2019-Jul-12 20:00N 59°59' E 026°47'917.5
2019-Jul-12 19:30N 59°58' E 026°30'917.8
2019-Jul-12 19:00N 59°55' E 026°13'917.9
2019-Jul-12 18:30N 59°53' E 025°56'917.8
2019-Jul-12 18:00N 59°52' E 025°38'917.7
2019-Jul-12 17:30N 59°50' E 025°21'917.9
2019-Jul-12 17:00N 59°48' E 025°03'917.1
2019-Jul-12 16:30N 59°43' E 024°49'917.3
2019-Jul-12 16:00N 59°36' E 024°42'815.4
2019-Jul-12 15:30N 59°28' E 024°46'1 2.5
2019-Jul-12 14:59N 59°27' E 024°46'0 0.0
2019-Jul-12 14:29N 59°27' E 024°46'0 0.1
2019-Jul-12 13:59N 59°27' E 024°46'0 0.0
2019-Jul-12 13:30N 59°27' E 024°46'0 0.0
2019-Jul-12 12:59N 59°27' E 024°46'0 0.1
2019-Jul-12 12:30N 59°27' E 024°46'0 0.1
2019-Jul-12 11:56N 59°27' E 024°46'0 0.1
2019-Jul-12 11:29N 59°27' E 024°46'0 0.1
2019-Jul-12 10:59N 59°27' E 024°46'0 0.0
2019-Jul-12 10:29N 59°27' E 024°46'0 0.0
2019-Jul-12 09:59N 59°27' E 024°46'  
Track history (hours):
 
Tides and Currents Weather Stations Pressure Air Temp Water Temp Dewpoint Dewpoint Depression Visibility Wind Speed Wind Dir Waves Ship Positions

Explorer Of The Seas

Operator: Royal Caribbean Cruises Ltd

Last reported at 2019-Jul-22 09:48 UTC. Time now 2019-Jul-22 14:36 UTC.
Position N 47°43' W 006°46'.

Length 311 m; draft 9.1 m.

Type: Passenger vessel. MMSI: 311316000.

Date/timePositionNaut miles runAvg speedWind from/ knotsBaromVisibWave heightAir tempDewpointWater temp
2019-Jul-22 09:48N 47°43' W 006°46'2120.7
2019-Jul-22 08:48N 48°02' W 006°32'3220.0
2019-Jul-22 07:13N 48°29' W 006°08'819.4
2019-Jul-22 06:48N 48°37' W 006°04'619.6
2019-Jul-22 06:30N 48°42' W 006°00'1119.4
2019-Jul-22 05:56N 48°52' W 005°52'819.4
2019-Jul-22 05:30N 48°58' W 005°43'1019.7
2019-Jul-22 05:00N 49°03' W 005°30'1019.9
2019-Jul-22 04:31N 49°08' W 005°17'1119.9
2019-Jul-22 03:59N 49°13' W 005°03'1419.4
2019-Jul-22 03:16N 49°21' W 004°46'619.5
2019-Jul-22 02:56N 49°24' W 004°37'3519.5
2019-Jul-22 01:10N 49°42' W 003°51'619.0
2019-Jul-22 00:50N 49°45' W 003°43'718.6
2019-Jul-22 00:29N 49°48' W 003°34'818.1
2019-Jul-22 00:01N 49°53' W 003°23'917.9
2019-Jul-21 23:31N 49°57' W 003°11'918.0
2019-Jul-21 23:01N 49°60' W 002°58'917.7
2019-Jul-21 22:31N 50°03' W 002°45'917.5
2019-Jul-21 21:59N 50°05' W 002°31'1017.4
2019-Jul-21 21:25N 50°09' W 002°16'717.6
2019-Jul-21 21:00N 50°11' W 002°06'918.0
2019-Jul-21 20:30N 50°16' W 001°54'918.5
2019-Jul-21 20:00N 50°20' W 001°41'918.9
2019-Jul-21 19:30N 50°25' W 001°28'1019.6
2019-Jul-21 19:00N 50°29' W 001°14'1020.0
2019-Jul-21 18:30N 50°34' W 001°01'816.6
2019-Jul-21 18:01N 50°42' W 000°58'815.7
2019-Jul-21 17:30N 50°46' W 001°09'612.0
2019-Jul-21 17:00N 50°48' W 001°18'5 9.2
2019-Jul-21 16:30N 50°52' W 001°22'3 5.8
2019-Jul-21 16:00N 50°54' W 001°25'0 0.0
2019-Jul-21 15:29N 50°54' W 001°25'0 0.0
2019-Jul-21 14:59N 50°54' W 001°25'0 0.0
2019-Jul-21 14:20N 50°54' W 001°25'0 0.0
2019-Jul-21 13:56N 50°54' W 001°25'0 0.0
2019-Jul-21 13:29N 50°54' W 001°25'0 0.0
2019-Jul-21 12:59N 50°54' W 001°25'0 0.0
2019-Jul-21 12:29N 50°54' W 001°25'0 0.0
2019-Jul-21 11:59N 50°54' W 001°25'0 0.0
2019-Jul-21 11:29N 50°54' W 001°25'0 0.0
2019-Jul-21 10:59N 50°54' W 001°25'0 0.0
2019-Jul-21 10:29N 50°54' W 001°25'0 0.0
2019-Jul-21 09:59N 50°54' W 001°25'0 0.0
2019-Jul-21 09:26N 50°54' W 001°25'0 0.0
2019-Jul-21 08:59N 50°54' W 001°25'0 0.0
2019-Jul-21 08:29N 50°54' W 001°25'0 0.0
2019-Jul-21 08:01N 50°54' W 001°25'1 1.3
2019-Jul-21 07:30N 50°53' W 001°24'5 9.1
2019-Jul-21 07:00N 50°50' W 001°19'4 8.3
2019-Jul-21 06:31N 50°46' W 001°17'918.7
2019-Jul-21 06:00N 50°44' W 001°03'714.1
2019-Jul-21 05:31N 50°39' W 000°55'1121.8
2019-Jul-21 05:00N 50°36' W 000°38'1122.9
2019-Jul-21 04:31N 50°34' W 000°20'1122.8
2019-Jul-21 04:00N 50°33' W 000°02'4320.9
2019-Jul-21 01:58N 50°50' E 000°59'2219.6
2019-Jul-21 00:50N 51°04' E 001°27'720.4
2019-Jul-21 00:30N 51°08' E 001°35'1121.1
2019-Jul-21 00:00N 51°15' E 001°47'3238.7
2019-Jul-21 00:00N 51°12' E 001°48'1428.5 270 / 251014.610.8 16.016.017.0
2019-Jul-20 23:31N 51°25' E 001°55'1223.3
2019-Jul-20 23:00N 51°35' E 002°05'1223.3
2019-Jul-20 22:30N 51°43' E 002°18'2013.2
2019-Jul-20 21:00N 52°00' E 002°36'16166.6 270 / 201012.327.0 15.0 15.0
2019-Jul-20 20:54N 52°16' E 002°38'1022.0
2019-Jul-20 20:26N 52°26' E 002°38'921.7
2019-Jul-20 20:00N 52°35' E 002°38'2521.2
2019-Jul-20 18:48N 53°01' E 002°38'620.4
2019-Jul-20 18:30N 53°07' E 002°39'510.1
2019-Jul-20 18:00N 53°12' E 002°42'25421.4 260 / 351007.010.8 15.0 16.0
2019-Jul-20 06:07N 57°18' E 004°36'321.0
2019-Jul-20 06:00N 57°20' E 004°37'1121.1
2019-Jul-20 05:29N 57°30' E 004°42'1021.3
2019-Jul-20 05:00N 57°40' E 004°48'1121.6
2019-Jul-20 04:30N 57°51' E 004°53'1121.7
2019-Jul-20 04:00N 58°01' E 004°58'1122.1
2019-Jul-20 03:29N 58°12' E 005°03'1121.7
2019-Jul-20 03:00N 58°23' E 005°07'1121.9
2019-Jul-20 02:30N 58°33' E 005°09'1121.9
2019-Jul-20 02:00N 58°44' E 005°15'918.9
2019-Jul-20 01:31N 58°51' E 005°27'714.2
2019-Jul-20 01:00N 58°58' E 005°33'510.1
2019-Jul-20 00:31N 59°02' E 005°38'4 8.5
2019-Jul-19 23:59N 58°58' E 005°44'0 0.0
2019-Jul-19 23:29N 58°58' E 005°44'0 0.0
2019-Jul-19 22:59N 58°58' E 005°44'0 0.0
2019-Jul-19 22:29N 58°58' E 005°44'0 0.0
2019-Jul-19 21:59N 58°58' E 005°44'0 0.0
2019-Jul-19 21:29N 58°58' E 005°44'0 0.0
2019-Jul-19 20:59N 58°58' E 005°44'0 0.0
2019-Jul-19 20:29N 58°58' E 005°44'0 0.0
2019-Jul-19 19:59N 58°58' E 005°44'0 0.0
2019-Jul-19 19:29N 58°58' E 005°44'0 0.0
2019-Jul-19 18:59N 58°58' E 005°44'0 0.0
2019-Jul-19 18:29N 58°58' E 005°44'0 0.0
2019-Jul-19 17:59N 58°58' E 005°44'0 0.0
2019-Jul-19 17:29N 58°58' E 005°44'0 0.0
2019-Jul-19 16:59N 58°58' E 005°44'0 0.0
2019-Jul-19 16:29N 58°58' E 005°44'0 0.0
2019-Jul-19 15:59N 58°58' E 005°44'0 0.0
2019-Jul-19 15:29N 58°58' E 005°44'0 0.0
2019-Jul-19 14:59N 58°58' E 005°44'0 0.0
2019-Jul-19 14:29N 58°58' E 005°44'0 0.0
2019-Jul-19 13:59N 58°58' E 005°44'0 0.0
2019-Jul-19 13:29N 58°58' E 005°44'0 0.0
2019-Jul-19 12:59N 58°58' E 005°44'0 0.0
2019-Jul-19 12:29N 58°58' E 005°44'0 0.0
2019-Jul-19 11:59N 58°58' E 005°44'0 0.0
2019-Jul-19 11:29N 58°58' E 005°44'0 0.0
2019-Jul-19 10:59N 58°58' E 005°44'0 0.0
2019-Jul-19 10:29N 58°58' E 005°44'0 0.0
2019-Jul-19 09:59N 58°58' E 005°44'0 0.0
2019-Jul-19 09:29N 58°58' E 005°44'0 0.0
2019-Jul-19 08:59N 58°58' E 005°44'0 0.0
2019-Jul-19 08:29N 58°58' E 005°44'0 0.0
2019-Jul-19 07:59N 58°58' E 005°44'0 0.0
2019-Jul-19 07:29N 58°58' E 005°44'0 0.0
2019-Jul-19 06:59N 58°58' E 005°44'0 0.0
2019-Jul-19 06:29N 58°58' E 005°44'1 1.3
2019-Jul-19 06:00N 58°59' E 005°43'612.0
2019-Jul-19 05:31N 59°03' E 005°34'816.5
2019-Jul-19 05:00N 58°55' E 005°33'612.2
2019-Jul-19 04:30N 58°50' E 005°27'917.6
2019-Jul-19 04:00N 58°42' E 005°18'1121.3
2019-Jul-19 03:30N 58°31' E 005°18'1120.5
2019-Jul-19 02:59N 58°22' E 005°26'1021.0
2019-Jul-19 02:30N 58°14' E 005°39'1020.7
2019-Jul-19 02:00N 58°07' E 005°54'1020.1
2019-Jul-19 01:30N 58°00' E 006°08'1019.0
2019-Jul-19 01:00N 57°55' E 006°22'918.6
2019-Jul-19 00:30N 57°49' E 006°36'918.6
2019-Jul-19 00:00N 57°47' E 006°53'1019.3
2019-Jul-18 23:29N 57°47' E 007°11'919.3
2019-Jul-18 23:00N 57°47' E 007°29'1019.6
2019-Jul-18 22:30N 57°46' E 007°47'1019.5
2019-Jul-18 22:00N 57°47' E 008°05'1019.2
2019-Jul-18 21:30N 57°48' E 008°23'918.9
2019-Jul-18 21:00N 57°49' E 008°41'918.4
2019-Jul-18 20:30N 57°50' E 008°58'918.1
2019-Jul-18 20:00N 57°51' E 009°15'918.3
2019-Jul-18 19:30N 57°52' E 009°32'918.6
2019-Jul-18 19:00N 57°54' E 009°49'917.1
2019-Jul-18 18:30N 57°53' E 010°05'918.2
2019-Jul-18 18:00N 57°52' E 010°22'918.1
2019-Jul-18 17:30N 57°51' E 010°39'714.9
2019-Jul-18 17:00N 57°44' E 010°45'510.0
2019-Jul-18 16:30N 57°43' E 010°36'1 1.2
2019-Jul-18 15:57N 57°43' E 010°35'0 0.0
2019-Jul-18 15:30N 57°43' E 010°35'0 0.0
2019-Jul-18 14:57N 57°43' E 010°35'0 0.0
2019-Jul-18 14:30N 57°43' E 010°35'0 0.0
2019-Jul-18 13:48N 57°43' E 010°35'0 0.0
2019-Jul-18 13:30N 57°43' E 010°35'0 0.0
2019-Jul-18 13:00N 57°43' E 010°35'0 0.0
2019-Jul-18 12:30N 57°43' E 010°35'0 0.0
2019-Jul-18 12:00N 57°43' E 010°35'0 0.0
2019-Jul-18 11:30N 57°43' E 010°35'0 0.0
2019-Jul-18 11:00N 57°43' E 010°35'0 0.0
2019-Jul-18 10:27N 57°43' E 010°35'0 0.0
2019-Jul-18 09:51N 57°43' E 010°35'0 0.0
2019-Jul-18 09:30N 57°43' E 010°35'0 0.0
2019-Jul-18 08:57N 57°43' E 010°35'0 0.0
2019-Jul-18 08:27N 57°43' E 010°35'0 0.0
2019-Jul-18 07:57N 57°43' E 010°35'0 0.0
2019-Jul-18 07:30N 57°43' E 010°35'2 3.3
2019-Jul-18 07:00N 57°43' E 010°38'1020.5
2019-Jul-18 06:30N 57°41' E 010°57'1121.3
2019-Jul-18 06:00N 57°34' E 011°13'1121.7
2019-Jul-18 05:30N 57°27' E 011°28'1121.9
2019-Jul-18 05:00N 57°17' E 011°34'1121.7
2019-Jul-18 04:30N 57°07' E 011°41'1121.5
2019-Jul-18 04:00N 56°56' E 011°47'1121.8
2019-Jul-18 03:30N 56°46' E 011°54'1121.0
2019-Jul-18 03:00N 56°37' E 011°45'1122.0
2019-Jul-18 02:30N 56°27' E 011°35'5819.5
2019-Jul-17 23:33N 55°36' E 010°49'417.8
2019-Jul-17 23:19N 55°32' E 010°52'619.1
2019-Jul-17 22:59N 55°27' E 010°57'817.6
2019-Jul-17 22:30N 55°19' E 011°03'917.5
2019-Jul-17 22:00N 55°10' E 011°01'1020.5
2019-Jul-17 21:30N 54°60' E 010°59'1121.1
2019-Jul-17 21:01N 54°50' E 010°50'4226.6
2019-Jul-17 21:00N 54°54' E 010°48'1428.8 270 / 61013.127.0 14.5 17.5
2019-Jul-17 20:31N 54°40' E 010°48'1121.2
2019-Jul-17 20:01N 54°36' E 011°05'1020.3
2019-Jul-17 19:31N 54°33' E 011°22'1121.5
2019-Jul-17 19:01N 54°28' E 011°38'1121.0
2019-Jul-17 18:30N 54°26' E 011°56'1019.3
2019-Jul-17 18:00N 54°29' E 012°12'8557.2
2019-Jul-17 18:00N 54°24' E 012°00'1837.2 280 / 121013.827.0 15.4 14.0
2019-Jul-17 17:30N 54°38' E 012°21'6521.1
2019-Jul-17 14:27N 55°04' E 014°03'1021.6
2019-Jul-17 14:00N 55°11' E 014°14'1721.8
2019-Jul-17 13:13N 55°25' E 014°31'522.1
2019-Jul-17 13:00N 55°29' E 014°38'1121.9
2019-Jul-17 12:30N 55°33' E 014°55'1121.8
2019-Jul-17 12:00N 55°37' E 015°13'1121.6
2019-Jul-17 11:30N 55°42' E 015°30'1121.9
2019-Jul-17 11:00N 55°48' E 015°46'1121.9
2019-Jul-17 10:31N 55°54' E 016°03'1122.0
2019-Jul-17 10:00N 55°59' E 016°20'1122.2
2019-Jul-17 09:30N 56°05' E 016°37'1121.5
2019-Jul-17 09:00N 56°14' E 016°48'18921.0
2019-Jul-17 00:00N 59°00' E 019°36'4712.4 350 / 101009.110.8 12.012.016.0
2019-Jul-16 20:15N 59°47' E 019°34'418.7
2019-Jul-16 20:00N 59°47' E 019°26'815.4
2019-Jul-16 19:30N 59°44' E 019°11'816.5
2019-Jul-16 18:59N 59°40' E 018°56'510.6
2019-Jul-16 18:29N 59°37' E 018°48'612.2
2019-Jul-16 18:00N 59°34' E 018°38'6 9.5
2019-Jul-16 17:21N 59°30' E 018°28'411.6
2019-Jul-16 17:00N 59°27' E 018°24'5 9.2
2019-Jul-16 16:30N 59°22' E 018°27'4 7.7
2019-Jul-16 16:00N 59°23' E 018°19'611.3
2019-Jul-16 15:30N 59°19' E 018°10'2 3.9
2019-Jul-16 14:59N 59°19' E 018°06'0 0.0
2019-Jul-16 14:29N 59°19' E 018°06'0 0.0
2019-Jul-16 13:59N 59°19' E 018°06'0 0.0
2019-Jul-16 13:29N 59°19' E 018°06'0 0.0
2019-Jul-16 12:59N 59°19' E 018°06'0 0.0
2019-Jul-16 12:29N 59°19' E 018°06'0 0.0
2019-Jul-16 11:59N 59°19' E 018°06'0 0.0
2019-Jul-16 11:29N 59°19' E 018°06'0 0.0
2019-Jul-16 10:59N 59°19' E 018°06'0 0.0
2019-Jul-16 10:29N 59°19' E 018°06'0 0.0
2019-Jul-16 09:53N 59°19' E 018°06'0 0.0
2019-Jul-16 09:29N 59°19' E 018°06'0 0.0
2019-Jul-16 08:59N 59°19' E 018°06'0 0.0
2019-Jul-16 08:29N 59°19' E 018°06'0 0.0
2019-Jul-16 07:59N 59°19' E 018°06'0 0.0
2019-Jul-16 07:29N 59°19' E 018°06'0 0.0
2019-Jul-16 06:59N 59°19' E 018°06'0 0.0
2019-Jul-16 06:29N 59°19' E 018°06'0 0.0
2019-Jul-16 05:59N 59°19' E 018°06'0 0.0
2019-Jul-16 05:31N 59°19' E 018°06'1 2.9
2019-Jul-16 05:00N 59°19' E 018°09'611.1
2019-Jul-16 04:30N 59°23' E 018°18'5 9.6
2019-Jul-16 04:01N 59°22' E 018°27'5 9.8
2019-Jul-16 03:30N 59°26' E 018°24'610.9
2019-Jul-16 02:59N 59°31' E 018°31'5 9.7
2019-Jul-16 02:30N 59°34' E 018°38'612.0
2019-Jul-16 02:00N 59°37' E 018°48'811.7
2019-Jul-16 01:17N 59°42' E 019°02'617.6
2019-Jul-16 00:58N 59°44' E 019°12'815.8
2019-Jul-16 00:27N 59°47' E 019°27'916.9
2019-Jul-15 23:55N 59°48' E 019°45'4917.6
2019-Jul-15 21:08N 59°28' E 021°14'218.9
2019-Jul-15 21:00N 59°27' E 021°18'916.2
2019-Jul-15 20:27N 59°25' E 021°35'511.2
2019-Jul-15 20:00N 59°26' E 021°45'3111.4
2019-Jul-15 17:19N 59°32' E 022°44'618.1
2019-Jul-15 17:00N 59°34' E 022°55'918.3
2019-Jul-15 16:30N 59°36' E 023°12'918.3
2019-Jul-15 16:00N 59°39' E 023°30'1118.2
2019-Jul-15 15:23N 59°41' E 023°51'718.2
2019-Jul-15 15:00N 59°43' E 024°05'918.2
2019-Jul-15 14:30N 59°47' E 024°21'918.1
2019-Jul-15 14:00N 59°49' E 024°38'917.9
2019-Jul-15 13:30N 59°54' E 024°53'714.8
2019-Jul-15 13:00N 60°02' E 024°55'612.8
2019-Jul-15 12:31N 60°08' E 024°54'1 1.7
2019-Jul-15 12:00N 60°09' E 024°55'0 0.0
2019-Jul-15 11:30N 60°09' E 024°55'0 0.0
2019-Jul-15 11:00N 60°09' E 024°55'0 0.1
2019-Jul-15 10:30N 60°09' E 024°55'0 0.1
2019-Jul-15 10:00N 60°09' E 024°55'0 0.0
2019-Jul-15 09:30N 60°09' E 024°55'0 0.0
2019-Jul-15 09:00N 60°09' E 024°55'0 0.0
2019-Jul-15 08:30N 60°09' E 024°55'0 0.0
2019-Jul-15 08:00N 60°09' E 024°55'0 0.0
2019-Jul-15 07:30N 60°09' E 024°55'0 0.0
2019-Jul-15 07:00N 60°09' E 024°55'0 0.0
2019-Jul-15 06:30N 60°09' E 024°55'0 0.0
2019-Jul-15 06:00N 60°09' E 024°55'0 0.0
2019-Jul-15 05:30N 60°09' E 024°55'0 0.1
2019-Jul-15 05:00N 60°09' E 024°55'0 0.1
2019-Jul-15 04:30N 60°09' E 024°55'0 0.0
2019-Jul-15 04:00N 60°09' E 024°55'0 0.5
2019-Jul-15 03:30N 60°09' E 024°55'611.3
2019-Jul-15 03:01N 60°03' E 024°54'713.9
2019-Jul-15 02:30N 59°58' E 025°03'815.5
2019-Jul-15 02:00N 59°56' E 025°18'815.2
2019-Jul-15 01:30N 59°55' E 025°33'2015.8
2019-Jul-15 00:15N 59°59' E 026°12'416.8
2019-Jul-15 00:01N 59°60' E 026°20'6347.9
2019-Jul-15 00:00N 59°54' E 026°18'1224.2 250 / 101010.710.8 14.014.016.0
2019-Jul-14 23:30N 60°01' E 026°36'816.8
2019-Jul-14 23:00N 59°60' E 026°53'816.4
2019-Jul-14 22:30N 60°02' E 027°09'917.2
2019-Jul-14 22:00N 60°06' E 027°24'917.1
2019-Jul-14 21:31N 60°11' E 027°38'816.2
2019-Jul-14 21:00N 60°11' E 027°55'6375.6
2019-Jul-14 21:00N 60°06' E 027°48'1224.9 300 / 121010.827.0 14.0 15.6
2019-Jul-14 20:30N 60°09' E 028°11'816.7
2019-Jul-14 20:01N 60°04' E 028°26'816.9
2019-Jul-14 19:30N 60°03' E 028°42'917.1
2019-Jul-14 18:59N 60°02' E 029°00'2313.6
2019-Jul-14 17:18N 59°59' E 029°45'3 8.9
2019-Jul-14 17:00N 59°57' E 029°50'510.8
2019-Jul-14 16:30N 59°55' E 029°60'5 9.6
2019-Jul-14 16:00N 59°57' E 030°09'1 2.3
2019-Jul-14 15:28N 59°57' E 030°11'0 0.0
2019-Jul-14 14:58N 59°57' E 030°11'0 0.0
2019-Jul-14 14:28N 59°57' E 030°11'0 0.0
2019-Jul-14 13:58N 59°57' E 030°11'0 0.0
2019-Jul-14 13:28N 59°57' E 030°11'0 0.0
2019-Jul-14 12:58N 59°57' E 030°11'0 0.0
2019-Jul-14 12:25N 59°57' E 030°11'0 0.0
2019-Jul-14 11:58N 59°57' E 030°11'0 0.0
2019-Jul-14 11:28N 59°57' E 030°11'0 0.0
2019-Jul-14 10:58N 59°57' E 030°11'0 0.0
2019-Jul-14 10:28N 59°57' E 030°11'0 0.0
2019-Jul-14 09:58N 59°57' E 030°11'0 0.0
2019-Jul-14 09:28N 59°57' E 030°11'0 0.0
2019-Jul-14 08:58N 59°57' E 030°11'0 0.0
2019-Jul-14 08:28N 59°57' E 030°11'0 0.0
2019-Jul-14 07:58N 59°57' E 030°11'0 0.0
2019-Jul-14 07:28N 59°57' E 030°11'0 0.0
2019-Jul-14 06:58N 59°57' E 030°11'0 0.0
2019-Jul-14 06:28N 59°57' E 030°11'0 0.0
2019-Jul-14 05:58N 59°57' E 030°11'0 0.0
2019-Jul-14 05:28N 59°57' E 030°11'0 0.0
2019-Jul-14 04:58N 59°57' E 030°11'0 0.0
2019-Jul-14 04:28N 59°57' E 030°11'0 0.0
2019-Jul-14 03:55N 59°57' E 030°11'0 0.0
2019-Jul-14 03:28N 59°57' E 030°11'0 0.0
2019-Jul-14 02:55N 59°57' E 030°11'0 0.0
2019-Jul-14 02:28N 59°57' E 030°11'0 0.0
2019-Jul-14 01:58N 59°57' E 030°11'0 0.0
2019-Jul-14 01:28N 59°57' E 030°11'0 0.0
2019-Jul-14 00:58N 59°57' E 030°11'0 0.0
2019-Jul-14 00:28N 59°57' E 030°11'0 0.0
2019-Jul-13 23:58N 59°57' E 030°11'0 0.0
2019-Jul-13 23:28N 59°57' E 030°11'0 0.0
2019-Jul-13 22:58N 59°57' E 030°11'0 0.0
2019-Jul-13 22:28N 59°57' E 030°11'0 0.0
2019-Jul-13 21:58N 59°57' E 030°11'0 0.0
2019-Jul-13 21:25N 59°57' E 030°11'0 0.0
2019-Jul-13 20:58N 59°57' E 030°11'0 0.0
2019-Jul-13 20:28N 59°57' E 030°11'0 0.0
2019-Jul-13 19:58N 59°57' E 030°11'0 0.0
2019-Jul-13 19:28N 59°57' E 030°11'0 0.0
2019-Jul-13 18:55N 59°57' E 030°11'0 0.0
2019-Jul-13 18:28N 59°57' E 030°11'0 0.0
2019-Jul-13 17:58N 59°57' E 030°11'0 0.0
2019-Jul-13 17:28N 59°57' E 030°11'0 0.0
2019-Jul-13 16:58N 59°57' E 030°11'0 0.0
2019-Jul-13 16:28N 59°57' E 030°11'0 0.0
2019-Jul-13 15:58N 59°57' E 030°11'0 0.0
2019-Jul-13 15:28N 59°57' E 030°11'0 0.0
2019-Jul-13 14:58N 59°57' E 030°11'0 0.0
2019-Jul-13 14:28N 59°57' E 030°11'0 0.0
2019-Jul-13 13:58N 59°57' E 030°11'0 0.0
2019-Jul-13 13:28N 59°57' E 030°11'0 0.0
2019-Jul-13 12:58N 59°57' E 030°11'0 0.0
2019-Jul-13 12:28N 59°57' E 030°11'0 0.0
2019-Jul-13 11:58N 59°57' E 030°11'0 0.0
2019-Jul-13 11:28N 59°57' E 030°11'0 0.0
2019-Jul-13 10:49N 59°57' E 030°11'0 0.0
2019-Jul-13 10:28N 59°57' E 030°11'0 0.0
2019-Jul-13 09:58N 59°57' E 030°11'0 0.0
2019-Jul-13 09:28N 59°57' E 030°11'0 0.0
2019-Jul-13 08:58N 59°57' E 030°11'0 0.0
2019-Jul-13 08:28N 59°57' E 030°11'0 0.0
2019-Jul-13 07:58N 59°57' E 030°11'0 0.0
2019-Jul-13 07:28N 59°57' E 030°11'0 0.0
2019-Jul-13 06:58N 59°57' E 030°11'0 0.0
2019-Jul-13 06:28N 59°57' E 030°11'0 0.0
2019-Jul-13 05:58N 59°57' E 030°11'0 0.0
2019-Jul-13 05:28N 59°57' E 030°11'0 0.0
2019-Jul-13 04:58N 59°57' E 030°11'0 0.0
2019-Jul-13 04:28N 59°57' E 030°11'0 0.0
2019-Jul-13 03:55N 59°57' E 030°11'0 0.2
2019-Jul-13 03:30N 59°57' E 030°11'3 5.6
2019-Jul-13 02:59N 59°56' E 030°05'5 9.5
2019-Jul-13 02:30N 59°56' E 029°56'510.2
2019-Jul-13 01:59N 59°58' E 029°47'1211.1
2019-Jul-13 00:56N 60°02' E 029°24'715.6
2019-Jul-13 00:29N 60°02' E 029°10'816.1
2019-Jul-13 00:00N 60°02' E 028°54'817.1
2019-Jul-12 23:30N 60°02' E 028°38'816.8
2019-Jul-12 23:00N 60°05' E 028°22'917.1
2019-Jul-12 22:30N 60°09' E 028°06'917.2
2019-Jul-12 21:59N 60°11' E 027°49'817.1
2019-Jul-12 21:30N 60°07' E 027°34'917.2
2019-Jul-12 21:00N 60°03' E 027°19'817.0
2019-Jul-12 20:30N 59°59' E 027°05'917.4
2019-Jul-12 20:00N 59°59' E 026°47'917.5
2019-Jul-12 19:30N 59°58' E 026°30'917.8
2019-Jul-12 19:00N 59°55' E 026°13'917.9
2019-Jul-12 18:30N 59°53' E 025°56'917.8
2019-Jul-12 18:00N 59°52' E 025°38'917.7
2019-Jul-12 17:30N 59°50' E 025°21'917.9
2019-Jul-12 17:00N 59°48' E 025°03'917.1
2019-Jul-12 16:30N 59°43' E 024°49'917.3
2019-Jul-12 16:00N 59°36' E 024°42'815.4
2019-Jul-12 15:30N 59°28' E 024°46'1 2.5
2019-Jul-12 14:59N 59°27' E 024°46'0 0.0
2019-Jul-12 14:29N 59°27' E 024°46'0 0.1
2019-Jul-12 13:59N 59°27' E 024°46'0 0.0
2019-Jul-12 13:30N 59°27' E 024°46'0 0.0
2019-Jul-12 12:59N 59°27' E 024°46'0 0.1
2019-Jul-12 12:30N 59°27' E 024°46'0 0.1
2019-Jul-12 11:56N 59°27' E 024°46'0 0.1
2019-Jul-12 11:29N 59°27' E 024°46'0 0.1
2019-Jul-12 10:59N 59°27' E 024°46'0 0.0
2019-Jul-12 10:29N 59°27' E 024°46'0 0.0
2019-Jul-12 09:59N 59°27' E 024°46'  

Dump ship's entire track history